Time;durP1;ratioP1;P1;durP2;ratioP2;P2;SDS_P1;SDS_P2;PMS_P1;PMS_P2;Temp;Humidity;BMP_temperature;BMP_pressure;BME280_temperature;BME280_humidity;BME280_pressure;Samples;Min_cycle;Max_cycle;Signal;HPM_P1;HPM_P2
2022/04/05 00:00:34;;;;;;;31.33;24.30;;;10.20;99.90;;;;;;5085578;28;20160;-87
2022/04/05 00:02:59;;;;;;;29.97;23.77;;;10.20;99.90;;;;;;5068239;28;20168;-79
2022/04/05 00:05:25;;;;;;;34.33;24.20;;;10.40;99.90;;;;;;5089542;28;20168;-79
2022/04/05 00:07:54;;;;;;;31.37;23.43;;;10.40;99.90;;;;;;5089539;28;20688;-80
2022/04/05 00:10:22;;;;;;;30.07;23.23;;;10.30;99.90;;;;;;5091852;28;20149;-95
2022/04/05 00:12:48;;;;;;;29.17;24.33;;;10.30;99.90;;;;;;5084871;28;20254;-82
2022/04/05 00:15:22;;;;;;;30.23;24.30;;;10.40;99.90;;;;;;5081401;28;20680;-78
2022/04/05 00:17:48;;;;;;;30.63;24.63;;;10.40;99.90;;;;;;5082487;28;20217;-89
2022/04/05 00:20:13;;;;;;;32.80;24.90;;;10.40;99.90;;;;;;5082150;28;20188;-90
2022/04/05 00:22:39;;;;;;;31.40;23.30;;;10.50;99.90;;;;;;5081041;28;20286;-94
2022/04/05 00:25:06;;;;;;;30.77;23.07;;;10.50;99.90;;;;;;5082074;28;20624;-93
2022/04/05 00:27:34;;;;;;;31.90;22.93;;;10.40;99.90;;;;;;5092358;28;20195;-81
2022/04/05 00:30:05;;;;;;;30.80;23.30;;;10.30;99.90;;;;;;5084681;28;20643;-95
2022/04/05 00:32:31;;;;;;;28.13;22.80;;;10.30;99.90;;;;;;5080950;28;20172;-95
2022/04/05 00:34:57;;;;;;;30.93;22.27;;;10.50;99.90;;;;;;5080866;28;20165;-81
2022/04/05 00:37:22;;;;;;;31.93;23.50;;;10.50;99.90;;;;;;5081663;28;20175;-78
2022/04/05 00:39:50;;;;;;;27.97;23.43;;;10.60;99.90;;;;;;5093183;28;20148;-77
2022/04/05 00:42:16;;;;;;;31.90;23.53;;;10.60;99.90;;;;;;5096922;28;20192;-79
2022/04/05 00:44:47;;;;;;;31.30;23.43;;;10.50;99.90;;;;;;5093200;28;20213;-79
2022/04/05 00:47:23;;;;;;;32.63;23.23;;;10.50;99.90;;;;;;5089925;28;20211;-84
2022/04/05 00:49:53;;;;;;;29.07;22.67;;;10.60;99.90;;;;;;5089813;28;20167;-83
2022/04/05 00:52:22;;;;;;;30.53;23.50;;;10.70;99.90;;;;;;5090986;28;20197;-77
2022/04/05 00:54:52;;;;;;;27.83;22.63;;;10.70;99.90;;;;;;5091341;28;20168;-90
2022/04/05 00:57:21;;;;;;;28.07;22.73;;;10.60;99.90;;;;;;5075856;28;20161;-77
2022/04/05 00:59:53;;;;;;;33.53;23.40;;;10.70;99.90;;;;;;5093271;28;20168;-83
2022/04/05 01:02:25;;;;;;;30.60;23.20;;;10.80;99.90;;;;;;5073161;28;20259;-78
2022/04/05 01:04:51;;;;;;;30.53;22.43;;;10.70;99.90;;;;;;5073291;28;20183;-82
2022/04/05 01:07:19;;;;;;;34.63;23.57;;;10.70;99.90;;;;;;5087032;28;20169;-78
2022/04/05 01:09:45;;;;;;;33.07;23.50;;;10.70;99.90;;;;;;5094345;28;20247;-85
2022/04/05 01:12:13;;;;;;;31.70;23.27;;;10.90;99.90;;;;;;5076374;28;20214;-83
2022/04/05 01:15:20;;;;;;;30.60;23.17;;;10.90;99.90;;;;;;5084655;28;20172;-93
2022/04/05 01:17:46;;;;;;;31.60;23.53;;;11.00;99.90;;;;;;5080520;28;20229;-91
2022/04/05 01:20:12;;;;;;;27.10;22.23;;;10.90;99.90;;;;;;5082387;28;20656;-87
2022/04/05 01:22:51;;;;;;;27.67;22.30;;;11.00;99.90;;;;;;5077571;28;20292;-78
2022/04/05 01:25:18;;;;;;;31.73;23.60;;;11.10;99.90;;;;;;5061164;28;20204;-89
2022/04/05 01:27:44;;;;;;;28.33;22.80;;;11.10;99.90;;;;;;5033424;28;20188;-77
2022/04/05 01:30:10;;;;;;;34.63;24.10;;;11.10;99.90;;;;;;5071773;28;20170;-79
2022/04/05 01:32:37;;;;;;;31.30;23.50;;;11.20;99.90;;;;;;5037552;28;20165;-88
2022/04/05 01:35:08;;;;;;;30.00;22.90;;;11.10;99.90;;;;;;5069899;28;20157;-78
2022/04/05 01:37:35;;;;;;;28.07;21.90;;;11.10;99.90;;;;;;5071204;28;20165;-77
2022/04/05 01:40:07;;;;;;;28.33;21.73;;;11.10;99.90;;;;;;5069825;28;20168;-92
2022/04/05 01:42:46;;;;;;;31.73;22.40;;;10.90;99.90;;;;;;5062317;28;20197;-92
2022/04/05 01:45:34;;;;;;;30.83;22.77;;;10.80;99.90;;;;;;5066643;28;20199;-78
2022/04/05 01:48:19;;;;;;;34.80;24.20;;;10.80;99.90;;;;;;5073081;28;20644;-82
2022/04/05 01:50:53;;;;;;;29.33;23.07;;;11.00;99.90;;;;;;5069645;28;20233;-77
2022/04/05 01:53:19;;;;;;;31.13;25.23;;;11.10;99.90;;;;;;5053472;28;20180;-79
2022/04/05 01:55:44;;;;;;;30.03;23.93;;;11.10;99.90;;;;;;5066148;28;20172;-80
2022/04/05 01:58:12;;;;;;;37.13;24.60;;;11.20;99.90;;;;;;5058967;28;20622;-81
2022/04/05 02:00:38;;;;;;;32.10;21.97;;;11.20;99.90;;;;;;5068110;28;20169;-76
2022/04/05 02:03:04;;;;;;;30.90;22.23;;;11.10;99.90;;;;;;5051728;28;20177;-78
2022/04/05 02:05:31;;;;;;;30.37;21.27;;;11.00;99.90;;;;;;5066646;28;20228;-81
2022/04/05 02:07:57;;;;;;;36.87;22.50;;;11.00;99.90;;;;;;5068898;28;20165;-94
2022/04/05 02:10:23;;;;;;;29.77;22.47;;;11.10;99.90;;;;;;5052705;28;20212;-80
2022/04/05 02:12:54;;;;;;;33.10;22.97;;;11.10;99.90;;;;;;5069393;28;20189;-84
2022/04/05 02:15:21;;;;;;;37.20;23.03;;;11.30;99.90;;;;;;5079106;28;20160;-80
2022/04/05 02:17:47;;;;;;;35.00;22.60;;;11.20;99.90;;;;;;5073178;28;20216;-76
2022/04/05 02:20:28;;;;;;;30.57;22.10;;;11.20;99.90;;;;;;5070527;28;20422;-77
2022/04/05 02:22:56;;;;;;;30.20;20.07;;;11.30;99.90;;;;;;5070285;28;20197;-78
2022/04/05 02:25:26;;;;;;;28.33;20.27;;;11.30;99.90;;;;;;5070969;28;20164;-78
2022/04/05 02:27:56;;;;;;;26.03;20.17;;;11.30;99.90;;;;;;5074275;28;20158;-77
2022/04/05 02:33:45;;;;;;;28.97;20.37;;;11.40;99.90;;;;;;5073933;28;20165;-87
2022/04/05 02:36:24;;;;;;;23.43;18.73;;;11.40;99.90;;;;;;5072093;28;20173;-84
2022/04/05 02:42:12;;;;;;;24.10;17.43;;;11.40;99.90;;;;;;5073861;28;20204;-75
2022/04/05 02:44:39;;;;;;;25.53;17.47;;;11.30;99.90;;;;;;5074494;28;20177;-77
2022/04/05 02:47:31;;;;;;;25.30;17.47;;;11.40;99.90;;;;;;5070976;28;20168;-89
2022/04/05 02:49:57;;;;;;;27.87;18.77;;;11.50;99.90;;;;;;5071867;28;20162;-77
2022/04/05 02:52:35;;;;;;;27.50;19.07;;;11.50;99.90;;;;;;5062860;28;20192;-87
2022/04/05 02:55:21;;;;;;;24.97;18.67;;;11.60;99.90;;;;;;5069579;28;20164;-77
2022/04/05 02:58:08;;;;;;;26.00;19.17;;;11.60;99.90;;;;;;5071992;28;20172;-76
2022/04/05 03:00:56;;;;;;;27.37;18.10;;;11.60;99.90;;;;;;5068601;28;20153;-85
2022/04/05 03:03:22;;;;;;;25.00;18.63;;;11.60;99.90;;;;;;5060788;28;20203;-83
2022/04/05 03:05:48;;;;;;;25.50;18.67;;;11.60;99.90;;;;;;5063099;28;20177;-93
2022/04/05 03:08:13;;;;;;;25.93;17.57;;;11.40;99.90;;;;;;5063472;28;20188;-81
2022/04/05 03:10:40;;;;;;;24.97;18.20;;;11.60;99.90;;;;;;5046697;28;20173;-78
2022/04/05 03:13:07;;;;;;;26.87;18.23;;;11.50;99.90;;;;;;5075111;28;20203;-78
2022/04/05 03:15:32;;;;;;;28.43;19.20;;;11.70;99.90;;;;;;5072673;28;20194;-77
2022/04/05 03:17:58;;;;;;;25.27;18.97;;;11.60;99.90;;;;;;5072179;28;20161;-80
2022/04/05 03:20:24;;;;;;;28.60;18.93;;;11.80;99.90;;;;;;5073145;28;20168;-77
2022/04/05 03:26:13;;;;;;;32.67;19.40;;;11.60;99.90;;;;;;5073467;28;20200;-82
2022/04/05 03:28:40;;;;;;;25.77;18.93;;;11.60;99.90;;;;;;5068398;28;20216;-95
2022/04/05 03:31:07;;;;;;;27.63;19.17;;;11.60;99.90;;;;;;5048180;28;20181;-84
2022/04/05 03:33:34;;;;;;;25.57;19.50;;;11.60;99.90;;;;;;5048386;28;20184;-93
2022/04/05 03:36:01;;;;;;;26.93;18.97;;;11.60;99.90;;;;;;5049299;28;20173;-79
2022/04/05 03:38:27;;;;;;;26.20;19.47;;;11.50;99.90;;;;;;5066085;28;20188;-96
2022/04/05 03:40:53;;;;;;;26.40;19.17;;;11.50;99.90;;;;;;5063514;28;20411;-94
2022/04/05 03:43:18;;;;;;;29.83;19.77;;;11.50;99.90;;;;;;5065835;28;20160;-78
2022/04/05 03:45:47;;;;;;;26.93;19.37;;;11.40;99.90;;;;;;5065607;28;20166;-89
2022/04/05 03:48:19;;;;;;;28.97;20.13;;;11.50;99.90;;;;;;5066207;28;20161;-84
2022/04/05 03:50:46;;;;;;;31.63;20.33;;;11.50;99.90;;;;;;5074341;28;20169;-79
2022/04/05 03:53:14;;;;;;;30.53;20.07;;;11.50;99.90;;;;;;5071849;28;20149;-78
2022/04/05 03:59:24;;;;;;;24.83;17.57;;;11.40;99.90;;;;;;5069273;28;20192;-87
2022/04/05 04:01:56;;;;;;;31.53;18.57;;;11.50;99.90;;;;;;5072893;28;20204;-91
2022/04/05 04:04:21;;;;;;;30.20;19.17;;;11.50;99.90;;;;;;5075513;28;20215;-76
2022/04/05 04:07:29;;;;;;;29.17;18.60;;;11.50;99.90;;;;;;5072702;28;20165;-79
2022/04/05 04:10:03;;;;;;;27.03;19.60;;;11.50;99.90;;;;;;5072097;28;20141;-78
2022/04/05 04:12:33;;;;;;;25.07;17.90;;;11.60;99.90;;;;;;5056914;28;20207;-77
2022/04/05 04:15:02;;;;;;;24.73;18.20;;;11.60;99.90;;;;;;5075217;28;20192;-75
2022/04/05 04:17:31;;;;;;;27.23;18.40;;;11.60;99.90;;;;;;5073601;28;20208;-83
2022/04/05 04:19:58;;;;;;;23.93;17.73;;;11.50;99.90;;;;;;5061610;28;20195;-89
2022/04/05 04:22:26;;;;;;;24.33;17.30;;;11.60;99.90;;;;;;5062245;28;20280;-87
2022/04/05 04:24:53;;;;;;;24.77;17.13;;;11.60;99.90;;;;;;5066588;28;20157;-80
2022/04/05 04:27:19;;;;;;;24.70;18.10;;;11.80;99.90;;;;;;5048455;28;20172;-88
2022/04/05 04:29:47;;;;;;;26.50;18.17;;;11.60;99.90;;;;;;5061637;28;20188;-81
2022/04/05 04:32:13;;;;;;;25.60;17.83;;;11.50;99.90;;;;;;5083011;28;20183;-79
2022/04/05 04:34:38;;;;;;;21.50;17.60;;;11.50;99.90;;;;;;5083981;28;20185;-90
2022/04/05 04:37:06;;;;;;;29.07;18.07;;;11.40;99.90;;;;;;5063938;28;20535;-82
2022/04/05 04:39:36;;;;;;;25.20;18.47;;;11.40;99.90;;;;;;5052274;28;20245;-76
2022/04/05 04:42:13;;;;;;;25.67;17.47;;;11.40;99.90;;;;;;5072647;28;20276;-76
2022/04/05 04:45:03;;;;;;;23.57;17.77;;;11.40;99.90;;;;;;5057923;28;20145;-77
2022/04/05 04:47:55;;;;;;;21.80;17.27;;;11.40;99.90;;;;;;5074136;28;20161;-79
2022/04/05 04:50:24;;;;;;;25.70;18.23;;;11.50;99.90;;;;;;5072028;28;20216;-77
2022/04/05 04:53:18;;;;;;;25.63;18.40;;;11.50;99.90;;;;;;5074116;28;20176;-76
2022/04/05 04:56:00;;;;;;;22.73;16.93;;;11.50;99.90;;;;;;5075527;28;20169;-77
2022/04/05 04:58:27;;;;;;;25.43;17.43;;;11.50;99.90;;;;;;5075247;28;20169;-77
2022/04/05 05:00:53;;;;;;;22.03;16.47;;;11.50;99.90;;;;;;5072821;28;20168;-81
2022/04/05 05:03:25;;;;;;;21.20;15.03;;;11.50;99.90;;;;;;5071728;28;20177;-86
2022/04/05 05:06:39;;;;;;;23.00;16.80;;;11.50;99.90;;;;;;5076229;28;20161;-76
2022/04/05 05:09:11;;;;;;;22.20;16.47;;;11.50;99.90;;;;;;5074993;28;20146;-77
2022/04/05 05:11:37;;;;;;;21.60;16.70;;;11.50;99.90;;;;;;5076201;28;20543;-78
2022/04/05 05:14:06;;;;;;;19.70;15.90;;;11.50;99.90;;;;;;5053581;28;20272;-80
2022/04/05 05:16:35;;;;;;;19.60;17.13;;;11.50;99.90;;;;;;5066084;28;20169;-94
2022/04/05 05:19:15;;;;;;;21.20;16.70;;;11.60;99.90;;;;;;5062155;28;20214;-94
2022/04/05 05:21:41;;;;;;;20.80;15.90;;;11.60;99.90;;;;;;5062289;28;20236;-91
2022/04/05 05:24:08;;;;;;;20.33;15.03;;;11.60;99.90;;;;;;5065296;28;20173;-82
2022/04/05 05:26:33;;;;;;;21.83;16.10;;;11.60;99.90;;;;;;5063387;28;20169;-81
2022/04/05 05:28:59;;;;;;;17.33;15.53;;;11.60;99.90;;;;;;5052257;28;20184;-77
2022/04/05 05:31:26;;;;;;;17.47;15.67;;;11.60;99.90;;;;;;5071770;28;20153;-77
2022/04/05 05:33:51;;;;;;;20.97;17.60;;;11.60;99.90;;;;;;5072828;28;20173;-78
2022/04/05 05:36:17;;;;;;;19.13;15.63;;;11.60;99.90;;;;;;5070728;28;20176;-84
2022/04/05 05:39:03;;;;;;;20.43;16.83;;;11.60;99.90;;;;;;5077689;28;20697;-95
2022/04/05 05:41:47;;;;;;;18.10;15.73;;;11.70;99.90;;;;;;5068640;28;20192;-96
2022/04/05 05:44:14;;;;;;;19.90;15.53;;;11.70;99.90;;;;;;5066701;28;20153;-95
2022/04/05 05:46:39;;;;;;;18.80;15.57;;;11.70;99.90;;;;;;5070894;28;20172;-87
2022/04/05 05:49:05;;;;;;;18.87;15.90;;;11.70;99.90;;;;;;5089048;28;20187;-83
2022/04/05 05:51:30;;;;;;;18.03;14.63;;;11.80;99.90;;;;;;5096902;28;20226;-92
2022/04/05 05:53:56;;;;;;;19.30;15.07;;;11.80;99.90;;;;;;5087179;28;20249;-91
2022/04/05 05:56:22;;;;;;;16.97;15.03;;;11.70;99.90;;;;;;5085257;28;20169;-76
2022/04/05 05:58:50;;;;;;;18.87;15.63;;;11.80;99.90;;;;;;5091017;28;20164;-76
2022/04/05 06:01:17;;;;;;;18.47;15.53;;;11.70;99.90;;;;;;5079077;28;20207;-77
2022/04/05 06:03:43;;;;;;;17.30;14.37;;;11.90;99.90;;;;;;5096685;28;20180;-83
2022/04/05 06:06:14;;;;;;;20.07;15.40;;;11.70;99.90;;;;;;5090571;28;20183;-76
2022/04/05 06:08:40;;;;;;;18.90;15.07;;;11.60;99.90;;;;;;5090347;28;20160;-76
2022/04/05 06:11:40;;;;;;;17.70;15.10;;;11.70;99.90;;;;;;5089337;28;20153;-77
2022/04/05 06:17:28;;;;;;;18.77;14.77;;;11.70;99.90;;;;;;5086975;28;20210;-78
2022/04/05 06:19:54;;;;;;;20.07;15.13;;;11.70;99.90;;;;;;5073969;28;20177;-79
2022/04/05 06:22:19;;;;;;;18.20;14.03;;;11.70;99.90;;;;;;5083402;28;20230;-80
2022/04/05 06:24:49;;;;;;;18.60;14.03;;;11.70;99.90;;;;;;5088871;28;20172;-77
2022/04/05 06:27:19;;;;;;;18.07;14.77;;;11.60;99.90;;;;;;5072016;28;20184;-77
2022/04/05 06:29:47;;;;;;;19.70;16.17;;;11.70;99.90;;;;;;5087931;28;20175;-92
2022/04/05 06:32:28;;;;;;;19.87;16.07;;;11.60;99.90;;;;;;5081187;28;20171;-78
2022/04/05 06:34:54;;;;;;;18.87;15.20;;;11.60;99.90;;;;;;5089170;28;20262;-76
2022/04/05 06:37:20;;;;;;;17.30;14.87;;;11.70;99.90;;;;;;5081520;28;20216;-91
2022/04/05 06:39:46;;;;;;;16.97;14.60;;;11.70;99.90;;;;;;5061289;28;20525;-77
2022/04/05 06:42:12;;;;;;;17.17;14.87;;;11.70;99.90;;;;;;5078782;28;20196;-89
2022/04/05 06:44:37;;;;;;;19.40;15.80;;;11.70;99.90;;;;;;5079995;28;20243;-92
2022/04/05 06:47:05;;;;;;;20.50;14.93;;;11.70;99.90;;;;;;5083983;28;20160;-84
2022/04/05 06:49:31;;;;;;;21.87;15.03;;;11.60;99.90;;;;;;5087563;28;20160;-87
2022/04/05 06:51:56;;;;;;;16.37;14.67;;;11.70;99.90;;;;;;5088532;28;20167;-89
2022/04/05 06:54:23;;;;;;;18.27;14.47;;;11.60;99.90;;;;;;5083477;28;20176;-92
2022/04/05 06:56:55;;;;;;;16.77;14.63;;;11.70;99.90;;;;;;5087352;28;20186;-77
2022/04/05 06:59:23;;;;;;;17.17;14.53;;;11.70;99.90;;;;;;5083514;28;20176;-79
2022/04/05 07:01:49;;;;;;;16.10;13.93;;;11.80;99.90;;;;;;5080796;28;20199;-79
2022/04/05 07:04:14;;;;;;;20.13;15.40;;;11.90;99.90;;;;;;5081386;28;20198;-86
2022/04/05 07:06:49;;;;;;;15.73;14.03;;;11.90;99.90;;;;;;5061518;28;20200;-94
2022/04/05 07:09:15;;;;;;;18.97;14.57;;;11.90;99.90;;;;;;5079257;28;20627;-88
2022/04/05 07:11:47;;;;;;;15.97;13.57;;;11.80;99.90;;;;;;5082657;28;20203;-94
2022/04/05 07:14:12;;;;;;;16.83;13.70;;;11.80;99.90;;;;;;5088036;28;20247;-77
2022/04/05 07:16:39;;;;;;;15.17;13.50;;;11.80;99.90;;;;;;5086177;28;20172;-80
2022/04/05 07:19:04;;;;;;;16.10;12.77;;;11.90;99.90;;;;;;5082341;28;20229;-92
2022/04/05 07:21:30;;;;;;;15.90;13.30;;;12.00;99.90;;;;;;5080311;28;20216;-91
2022/04/05 07:23:55;;;;;;;13.07;11.80;;;11.90;99.90;;;;;;5080963;28;20243;-81
2022/04/05 07:26:21;;;;;;;16.23;13.17;;;12.00;99.90;;;;;;5085455;28;20173;-88
2022/04/05 07:28:48;;;;;;;17.53;13.47;;;12.00;99.90;;;;;;5083147;28;20168;-89
2022/04/05 07:31:14;;;;;;;14.57;13.07;;;12.00;99.90;;;;;;5082118;28;20167;-79
2022/04/05 07:33:40;;;;;;;14.60;12.80;;;11.90;99.90;;;;;;5079701;28;20519;-92
2022/04/05 07:36:06;;;;;;;16.40;13.87;;;11.90;99.90;;;;;;5071912;28;20168;-88
2022/04/05 07:38:32;;;;;;;14.23;12.53;;;11.90;99.90;;;;;;5076235;28;20229;-79
2022/04/05 07:40:59;;;;;;;14.07;12.53;;;11.70;99.90;;;;;;5088882;28;20164;-94
2022/04/05 07:43:27;;;;;;;14.77;12.60;;;12.10;99.90;;;;;;5080586;28;20298;-88
2022/04/05 07:45:54;;;;;;;17.27;13.27;;;12.00;99.90;;;;;;5078017;28;20192;-96
2022/04/05 07:48:22;;;;;;;15.07;12.87;;;12.10;99.90;;;;;;5064697;28;20156;-78
2022/04/05 07:50:49;;;;;;;14.40;12.67;;;12.00;99.90;;;;;;5075415;28;20168;-77
2022/04/05 07:53:20;;;;;;;16.50;12.73;;;12.00;99.90;;;;;;5087536;28;20172;-76
2022/04/05 07:55:50;;;;;;;14.07;12.57;;;12.10;99.90;;;;;;5087442;28;20221;-77
2022/04/05 07:58:22;;;;;;;14.03;11.87;;;12.00;99.90;;;;;;5090481;28;20165;-78
2022/04/05 08:00:57;;;;;;;14.13;12.63;;;12.00;99.90;;;;;;5091695;28;20156;-80
2022/04/05 08:03:27;;;;;;;16.03;13.23;;;12.10;99.90;;;;;;5078371;28;20163;-80
2022/04/05 08:06:13;;;;;;;14.53;13.00;;;12.10;99.90;;;;;;5083464;28;20168;-78
2022/04/05 08:08:42;;;;;;;16.47;13.93;;;12.10;99.90;;;;;;5087863;28;20191;-87
2022/04/05 08:11:23;;;;;;;13.43;12.07;;;12.10;99.90;;;;;;5088263;28;20164;-78
2022/04/05 08:13:49;;;;;;;14.70;12.00;;;12.10;99.90;;;;;;5067239;28;20188;-79
2022/04/05 08:16:15;;;;;;;13.43;12.13;;;12.10;99.90;;;;;;5081953;28;20659;-81
2022/04/05 08:18:42;;;;;;;13.60;12.07;;;12.10;99.90;;;;;;5087581;28;20196;-77
2022/04/05 08:21:09;;;;;;;15.30;11.63;;;12.10;99.90;;;;;;5085941;28;20203;-82
2022/04/05 08:23:41;;;;;;;11.60;10.40;;;12.10;99.90;;;;;;5084515;28;20220;-82
2022/04/05 08:26:09;;;;;;;13.60;11.07;;;12.10;99.90;;;;;;5087184;28;20157;-79
2022/04/05 08:28:35;;;;;;;13.47;11.50;;;12.10;99.90;;;;;;5090871;28;20204;-80
2022/04/05 08:31:03;;;;;;;12.33;11.10;;;12.10;99.90;;;;;;5092262;28;20169;-77
2022/04/05 08:33:38;;;;;;;12.60;9.97;;;12.10;99.90;;;;;;5094208;28;20167;-78
2022/04/05 08:36:06;;;;;;;11.03;9.50;;;12.10;99.90;;;;;;5086182;28;20190;-81
2022/04/05 08:38:31;;;;;;;12.47;9.63;;;12.10;99.90;;;;;;5084961;28;20164;-89
2022/04/05 08:41:05;;;;;;;11.27;9.87;;;12.20;99.90;;;;;;5088924;28;20480;-75
2022/04/05 08:43:32;;;;;;;11.70;10.50;;;12.20;99.90;;;;;;5090616;28;20163;-77
2022/04/05 08:46:00;;;;;;;12.90;11.10;;;12.20;99.90;;;;;;5092769;28;20164;-77
2022/04/05 08:48:29;;;;;;;11.50;9.97;;;12.20;99.90;;;;;;5091577;28;20188;-76
2022/04/05 08:51:05;;;;;;;12.57;11.07;;;12.20;99.90;;;;;;5092059;28;20172;-76
2022/04/05 08:53:38;;;;;;;14.30;11.43;;;12.30;99.90;;;;;;5090564;28;20560;-76
2022/04/05 08:56:04;;;;;;;12.37;11.07;;;12.30;99.90;;;;;;5088502;28;20163;-77
2022/04/05 08:58:33;;;;;;;12.70;11.17;;;12.30;99.90;;;;;;5089114;28;20160;-77
2022/04/05 09:01:21;;;;;;;10.97;9.87;;;12.40;99.90;;;;;;5090118;28;20153;-78
2022/04/05 09:03:47;;;;;;;10.90;9.80;;;12.40;99.90;;;;;;5089288;28;20160;-89
2022/04/05 09:06:33;;;;;;;10.47;9.47;;;12.40;99.90;;;;;;5085516;28;20168;-91
2022/04/05 09:12:28;;;;;;;11.83;10.07;;;12.40;99.90;;;;;;5080400;28;20254;-85
2022/04/05 09:14:55;;;;;;;10.40;9.33;;;12.50;99.90;;;;;;5081532;28;20169;-79
2022/04/05 09:17:21;;;;;;;10.40;9.30;;;12.50;99.90;;;;;;5080984;28;20164;-95
2022/04/05 09:19:46;;;;;;;9.70;8.50;;;12.40;99.90;;;;;;5082522;28;20172;-93
2022/04/05 09:22:12;;;;;;;11.50;10.00;;;12.40;99.90;;;;;;5087429;28;20231;-80
2022/04/05 09:24:46;;;;;;;10.90;9.80;;;12.40;99.90;;;;;;5098912;28;20199;-76
2022/04/05 09:27:49;;;;;;;12.10;9.50;;;12.50;99.90;;;;;;5092963;28;20210;-77
2022/04/05 09:30:31;;;;;;;11.00;9.93;;;12.50;99.90;;;;;;5085153;28;20168;-81
2022/04/05 09:33:04;;;;;;;10.30;8.87;;;12.60;99.90;;;;;;5084984;28;20183;-84
2022/04/05 09:35:41;;;;;;;9.57;8.53;;;12.60;99.90;;;;;;5086452;28;20172;-77
2022/04/05 09:38:17;;;;;;;11.13;8.80;;;12.60;99.90;;;;;;5094582;28;20184;-77
2022/04/05 09:44:05;;;;;;;9.73;8.80;;;12.50;99.90;;;;;;5084030;28;20274;-78
2022/04/05 09:46:33;;;;;;;10.30;9.30;;;12.50;99.90;;;;;;5080119;28;20180;-94
2022/04/05 09:49:11;;;;;;;10.10;9.10;;;12.60;99.90;;;;;;5081319;28;20172;-83
2022/04/05 09:51:42;;;;;;;9.97;8.80;;;12.70;99.90;;;;;;5091354;28;20187;-76
2022/04/05 09:54:18;;;;;;;9.53;8.43;;;12.70;99.90;;;;;;5090032;28;20165;-78
2022/04/05 09:57:00;;;;;;;10.63;9.50;;;12.70;99.90;;;;;;5088015;28;20167;-78
2022/04/05 09:59:47;;;;;;;11.30;9.37;;;12.90;99.90;;;;;;5084247;28;20164;-93
2022/04/05 10:02:15;;;;;;;9.27;8.37;;;13.00;99.90;;;;;;5084580;28;20214;-94
2022/04/05 10:05:01;;;;;;;8.93;8.00;;;13.10;99.90;;;;;;5066858;28;20172;-79
2022/04/05 10:07:39;;;;;;;9.17;8.27;;;13.00;99.90;;;;;;5085117;28;20207;-84
2022/04/05 10:10:08;;;;;;;9.77;8.43;;;12.90;99.90;;;;;;5048491;28;20172;-77
2022/04/05 10:12:34;;;;;;;10.10;9.20;;;12.80;99.90;;;;;;5082384;28;20671;-79
2022/04/05 10:15:00;;;;;;;9.93;8.93;;;12.80;99.90;;;;;;5082659;28;20210;-88
2022/04/05 10:17:28;;;;;;;9.63;8.63;;;12.70;99.90;;;;;;5080486;28;20168;-79
2022/04/05 10:19:59;;;;;;;9.27;8.37;;;12.80;99.90;;;;;;5082203;28;20251;-79
2022/04/05 10:22:25;;;;;;;8.43;7.40;;;12.80;99.90;;;;;;5058284;28;20220;-77
2022/04/05 10:24:54;;;;;;;8.83;7.93;;;12.90;99.90;;;;;;5078221;28;20224;-81
2022/04/05 10:27:27;;;;;;;8.73;7.77;;;12.70;99.90;;;;;;5073002;28;20172;-79
2022/04/05 10:30:33;;;;;;;8.70;7.90;;;12.70;99.90;;;;;;5085382;28;20161;-90
2022/04/05 10:33:49;;;;;;;8.03;7.23;;;12.70;99.90;;;;;;5082062;28;20160;-91
2022/04/05 10:36:23;;;;;;;9.80;7.50;;;12.80;99.90;;;;;;5080897;28;20505;-84
2022/04/05 10:39:12;;;;;;;8.13;7.33;;;12.80;99.90;;;;;;5061783;28;20171;-94
2022/04/05 10:41:38;;;;;;;7.60;6.90;;;12.70;99.90;;;;;;5062449;28;20197;-86
2022/04/05 10:44:27;;;;;;;8.60;7.80;;;12.70;99.90;;;;;;5069898;28;20169;-91
2022/04/05 10:46:57;;;;;;;8.40;7.50;;;12.70;99.90;;;;;;5066259;28;20263;-95
2022/04/05 10:49:42;;;;;;;9.23;8.43;;;12.70;99.90;;;;;;5063719;28;20221;-78
2022/04/05 10:52:26;;;;;;;8.83;7.93;;;12.80;99.90;;;;;;5068457;28;20237;-81
2022/04/05 10:55:02;;;;;;;8.73;7.83;;;12.80;99.90;;;;;;5051740;28;20588;-84
2022/04/05 10:57:35;;;;;;;8.57;7.67;;;12.90;99.90;;;;;;5068022;28;20172;-78
2022/04/05 11:00:24;;;;;;;8.87;7.77;;;12.90;99.90;;;;;;5070189;28;20244;-85
2022/04/05 11:02:58;;;;;;;8.33;7.43;;;12.90;99.90;;;;;;5053714;28;20209;-78
2022/04/05 11:05:36;;;;;;;8.60;7.27;;;13.00;99.90;;;;;;5069163;28;20152;-78
2022/04/05 11:11:26;;;;;;;8.33;7.53;;;13.00;99.90;;;;;;5069594;28;20270;-82
2022/04/05 11:14:02;;;;;;;7.87;7.17;;;12.90;99.90;;;;;;5074926;28;20149;-78
2022/04/05 11:16:30;;;;;;;8.60;7.80;;;12.90;99.90;;;;;;5052911;28;20207;-78
2022/04/05 11:19:03;;;;;;;7.60;6.90;;;13.00;99.90;;;;;;5062910;28;20185;-81
2022/04/05 11:21:28;;;;;;;7.27;6.10;;;13.00;99.90;;;;;;5069770;28;20201;-78
2022/04/05 11:23:57;;;;;;;8.40;7.63;;;13.00;99.90;;;;;;5071051;28;20188;-83
2022/04/05 11:26:38;;;;;;;9.37;7.43;;;13.10;99.90;;;;;;5073443;28;20149;-77
2022/04/05 11:29:39;;;;;;;8.10;7.00;;;13.10;99.90;;;;;;5067297;28;20164;-85
2022/04/05 11:32:10;;;;;;;8.40;6.53;;;13.20;99.90;;;;;;5067229;28;20157;-90
2022/04/05 11:34:46;;;;;;;7.60;6.80;;;13.20;99.90;;;;;;5065569;28;20184;-93
2022/04/05 11:37:12;;;;;;;8.33;7.53;;;13.20;99.90;;;;;;5063033;28;20204;-79
2022/04/05 11:39:42;;;;;;;6.90;6.30;;;13.40;99.90;;;;;;5068833;28;20176;-77
2022/04/05 11:42:09;;;;;;;7.17;6.47;;;13.40;99.90;;;;;;5068543;28;20239;-78
2022/04/05 11:44:50;;;;;;;7.40;6.53;;;13.50;99.90;;;;;;5046855;28;20181;-82
2022/04/05 11:47:18;;;;;;;6.87;6.27;;;13.60;99.90;;;;;;5065069;28;20164;-78
2022/04/05 11:49:47;;;;;;;7.53;6.00;;;13.60;99.90;;;;;;5061393;28;20172;-90
2022/04/05 11:52:14;;;;;;;7.73;6.40;;;13.50;99.90;;;;;;5062798;28;20192;-94
2022/04/05 11:57:27;;;;;;;7.63;6.17;;;13.40;99.90;;;;;;5059297;28;20207;-84
2022/04/05 12:00:08;;;;;;;6.97;6.30;;;13.50;99.90;;;;;;5061787;28;20170;-84
2022/04/05 12:02:34;;;;;;;7.23;6.53;;;13.60;99.90;;;;;;5063832;28;20200;-79
2022/04/05 12:05:03;;;;;;;7.60;6.47;;;13.70;99.90;;;;;;5049724;28;20306;-82
2022/04/05 12:07:35;;;;;;;6.93;6.00;;;13.60;99.90;;;;;;5057646;28;20173;-85
2022/04/05 12:10:03;;;;;;;6.23;5.30;;;13.60;99.90;;;;;;5076204;28;20157;-91
2022/04/05 12:12:29;;;;;;;6.53;5.90;;;13.50;99.50;;;;;;5076888;28;20189;-78
2022/04/05 12:14:58;;;;;;;6.13;5.63;;;13.50;99.90;;;;;;5086338;28;20171;-80
2022/04/05 12:17:56;;;;;;;6.53;5.90;;;13.60;99.90;;;;;;5084872;28;20259;-82
2022/04/05 12:20:28;;;;;;;6.70;6.00;;;13.70;99.00;;;;;;5093082;28;20237;-86
2022/04/05 12:22:54;;;;;;;6.90;5.57;;;13.90;99.10;;;;;;5092821;28;20590;-77
2022/04/05 12:25:36;;;;;;;5.33;4.83;;;13.80;98.10;;;;;;5085486;28;20164;-80
2022/04/05 12:28:07;;;;;;;5.20;4.70;;;13.70;96.40;;;;;;5092595;28;20155;-78
2022/04/05 12:30:36;;;;;;;5.20;4.70;;;13.70;96.60;;;;;;5087113;28;20168;-79
2022/04/05 12:33:03;;;;;;;4.77;4.30;;;13.70;96.30;;;;;;5088032;28;20160;-82
2022/04/05 12:35:32;;;;;;;5.70;4.63;;;13.70;97.20;;;;;;5084737;28;20210;-78
2022/04/05 12:37:57;;;;;;;5.80;5.00;;;13.90;96.80;;;;;;5088927;28;20169;-92
2022/04/05 12:40:25;;;;;;;5.23;4.70;;;13.90;97.00;;;;;;5091505;28;20183;-82
2022/04/05 12:43:39;;;;;;;5.73;4.83;;;14.00;96.40;;;;;;5091554;28;20176;-85
2022/04/05 12:46:35;;;;;;;4.73;4.30;;;14.20;96.00;;;;;;5087704;28;20203;-87
2022/04/05 12:49:38;;;;;;;5.10;4.60;;;14.40;95.30;;;;;;5083402;28;20218;-84
2022/04/05 12:52:24;;;;;;;5.13;4.40;;;14.40;94.40;;;;;;5091441;28;20425;-82
2022/04/05 12:55:00;;;;;;;5.43;4.20;;;14.40;94.40;;;;;;5093661;28;20210;-78
2022/04/05 12:57:36;;;;;;;4.50;4.10;;;14.40;94.70;;;;;;5095145;28;20188;-80
2022/04/05 13:00:18;;;;;;;5.33;3.70;;;14.60;94.20;;;;;;5094814;28;20164;-79
2022/04/05 13:06:21;;;;;;;3.87;2.60;;;14.60;91.30;;;;;;5096892;28;20201;-80
2022/04/05 13:09:08;;;;;;;3.53;2.80;;;14.40;90.30;;;;;;5089890;28;20235;-88
2022/04/05 13:11:40;;;;;;;4.23;2.80;;;14.10;92.10;;;;;;5088164;28;20214;-78
2022/04/05 13:14:20;;;;;;;3.03;2.73;;;14.00;92.30;;;;;;5090585;28;20225;-79
2022/04/05 13:16:58;;;;;;;3.40;2.63;;;13.90;92.80;;;;;;5090213;28;20175;-78
2022/04/05 13:19:33;;;;;;;3.70;3.17;;;13.90;93.50;;;;;;5098039;28;20180;-77
2022/04/05 13:22:01;;;;;;;3.57;3.23;;;13.90;93.80;;;;;;5090515;28;20213;-82
2022/04/05 13:25:06;;;;;;;3.47;3.17;;;13.90;94.10;;;;;;5081909;28;20185;-85
2022/04/05 13:27:32;;;;;;;4.93;3.30;;;13.90;93.90;;;;;;5085126;28;20226;-79
2022/04/05 13:30:08;;;;;;;4.07;3.40;;;14.00;93.60;;;;;;5085714;28;20261;-78